West Blue, Nebraska
Current Conditions -  °F | °C
As of 7:53 PM on Tuesday 21 Oct 2014 (Local Time) from KHSI Reporting Station
Clear Clear  
Wind Chill: 67°   Ceiling: Unl
Heat Index: 67°   Visibility: 10mi
Dew Point: 50°   Wind: 13mph
Humidity: 54%   Direction: 150°SSE
Pressure: 29.98"   Gusts: NA
Location:  40.5551°N, 98.369°W
Report Text: KHSI 220053Z AUTO 15011KT 10SM CLR 19/10 A2998 RMK AO2 SLP148 T01940100
Loading
Personal Weather Stations






























Interactive Weather Map New forecast layout! Learn more

10-Day Weather Forecast

Advertisements
Track Severe Weather on mobile